Time;durP1;ratioP1;P1;durP2;ratioP2;P2;SDS_P1;SDS_P2;PMS_P1;PMS_P2;Temp;Humidity;BMP_temperature;BMP_pressure;BME280_temperature;BME280_humidity;BME280_pressure;Samples;Min_cycle;Max_cycle;Signal;HPM_P1;HPM_P2
2022/11/20 00:00:37;;;;;;;26.97;18.07;;;-2.70;99.90;;;;;;5073974;28;20258;-69
2022/11/20 00:03:02;;;;;;;30.50;19.73;;;-2.70;99.90;;;;;;5075891;28;20578;-68
2022/11/20 00:05:28;;;;;;;33.10;20.67;;;-2.70;99.90;;;;;;5073846;28;20190;-68
2022/11/20 00:07:54;;;;;;;26.90;18.93;;;-2.70;99.90;;;;;;5075440;28;20236;-69
2022/11/20 00:10:19;;;;;;;23.40;16.40;;;-2.70;99.90;;;;;;5075388;28;20196;-68
2022/11/20 00:12:45;;;;;;;28.40;19.40;;;-2.70;99.90;;;;;;5074963;28;20189;-68
2022/11/20 00:15:11;;;;;;;29.33;19.47;;;-2.60;99.90;;;;;;5074554;28;20255;-69
2022/11/20 00:17:36;;;;;;;28.93;18.33;;;-2.70;99.90;;;;;;5074851;28;20538;-68
2022/11/20 00:20:03;;;;;;;31.23;20.30;;;-2.60;99.90;;;;;;5074860;28;20176;-68
2022/11/20 00:22:29;;;;;;;29.23;20.10;;;-2.60;99.90;;;;;;5074851;28;20261;-68
2022/11/20 00:24:57;;;;;;;29.13;20.70;;;-2.60;99.90;;;;;;5074829;28;20253;-68
2022/11/20 00:27:22;;;;;;;30.60;19.57;;;-2.50;99.90;;;;;;5074756;28;20170;-69
2022/11/20 00:29:48;;;;;;;28.13;18.97;;;-2.50;99.90;;;;;;5074010;28;20196;-68
2022/11/20 00:32:14;;;;;;;30.03;19.70;;;-2.40;99.90;;;;;;5074318;28;20539;-68
2022/11/20 00:34:40;;;;;;;28.63;20.37;;;-2.40;99.90;;;;;;5075616;28;20201;-68
2022/11/20 00:37:05;;;;;;;28.17;20.63;;;-2.30;99.90;;;;;;5074965;28;20174;-68
2022/11/20 00:39:31;;;;;;;28.87;19.43;;;-2.30;99.90;;;;;;5074730;28;20211;-68
2022/11/20 00:41:57;;;;;;;29.50;20.93;;;-2.30;99.90;;;;;;5074712;28;20253;-69
2022/11/20 00:44:22;;;;;;;27.77;20.13;;;-2.30;99.90;;;;;;5075037;28;20174;-68
2022/11/20 00:46:48;;;;;;;33.37;21.00;;;-2.20;99.90;;;;;;5074506;28;20202;-68
2022/11/20 00:49:14;;;;;;;31.63;20.80;;;-2.10;99.90;;;;;;5074633;28;20699;-70
2022/11/20 00:51:39;;;;;;;32.83;21.63;;;-2.10;99.90;;;;;;5075240;28;20220;-68
2022/11/20 00:54:05;;;;;;;29.47;19.87;;;-2.00;99.90;;;;;;5074688;28;20708;-68
2022/11/20 00:56:31;;;;;;;30.83;20.33;;;-2.00;99.90;;;;;;5074357;28;20204;-69
2022/11/20 00:59:00;;;;;;;32.93;21.93;;;-2.00;99.90;;;;;;5074184;28;20213;-69
2022/11/20 01:01:28;;;;;;;36.97;22.80;;;-2.00;99.90;;;;;;5074026;28;20170;-69
2022/11/20 01:03:56;;;;;;;29.37;19.60;;;-1.90;99.90;;;;;;5072805;28;20177;-69
2022/11/20 01:06:25;;;;;;;32.90;21.50;;;-1.90;99.90;;;;;;5072875;28;20646;-69
2022/11/20 01:08:53;;;;;;;28.83;20.47;;;-1.90;99.90;;;;;;5073990;28;20231;-69
2022/11/20 01:11:22;;;;;;;29.47;20.47;;;-1.90;99.90;;;;;;5073807;28;20178;-69
2022/11/20 01:13:49;;;;;;;30.13;21.23;;;-1.80;99.90;;;;;;5074417;28;20182;-68
2022/11/20 01:16:21;;;;;;;34.90;22.57;;;-1.80;99.90;;;;;;5074043;28;20662;-69
2022/11/20 01:18:49;;;;;;;34.50;21.80;;;-1.80;99.90;;;;;;5072598;28;20732;-69
2022/11/20 01:21:21;;;;;;;32.37;21.97;;;-1.70;99.90;;;;;;5073889;28;20216;-72
2022/11/20 01:23:48;;;;;;;34.20;22.00;;;-1.70;99.90;;;;;;5074196;28;20166;-69
2022/11/20 01:26:16;;;;;;;33.77;22.40;;;-1.60;99.90;;;;;;5074154;28;20670;-69
2022/11/20 01:28:43;;;;;;;34.53;22.17;;;-1.60;99.90;;;;;;5073673;28;20603;-69
2022/11/20 01:31:19;;;;;;;37.37;23.13;;;-1.60;99.90;;;;;;5072496;28;20223;-69
2022/11/20 01:33:47;;;;;;;35.30;22.50;;;-1.60;99.90;;;;;;5073606;28;20277;-69
2022/11/20 01:36:14;;;;;;;32.50;22.10;;;-1.50;99.90;;;;;;5073818;28;20627;-69
2022/11/20 01:38:40;;;;;;;34.80;22.83;;;-1.50;99.90;;;;;;5073892;28;20198;-69
2022/11/20 01:41:06;;;;;;;33.43;20.77;;;-1.50;99.90;;;;;;5074158;28;20500;-69
2022/11/20 01:43:33;;;;;;;36.00;22.67;;;-1.40;99.90;;;;;;5077782;28;20215;-69
2022/11/20 01:46:18;;;;;;;33.63;21.47;;;-1.40;99.90;;;;;;5078091;28;20209;-68
2022/11/20 01:48:50;;;;;;;29.63;20.33;;;-1.40;99.90;;;;;;5077895;28;20205;-69
2022/11/20 01:51:28;;;;;;;30.63;21.13;;;-1.40;99.90;;;;;;5077604;28;20591;-69
2022/11/20 01:53:58;;;;;;;32.77;22.03;;;-1.30;99.90;;;;;;5076337;28;20625;-69
2022/11/20 01:56:25;;;;;;;30.77;21.33;;;-1.30;99.90;;;;;;5078149;28;20163;-69
2022/11/20 01:58:56;;;;;;;32.63;21.07;;;-1.40;99.90;;;;;;5077297;28;20211;-69
2022/11/20 02:01:22;;;;;;;31.23;20.53;;;-1.30;99.90;;;;;;5077296;28;20154;-69
2022/11/20 02:03:49;;;;;;;32.67;22.30;;;-1.30;99.90;;;;;;5076234;28;20322;-69
2022/11/20 02:06:25;;;;;;;31.27;22.67;;;-1.30;99.90;;;;;;5076066;28;20181;-69
2022/11/20 02:08:52;;;;;;;35.30;21.77;;;-1.30;99.90;;;;;;5077587;28;20245;-70
2022/11/20 02:11:18;;;;;;;35.97;22.80;;;-1.30;99.90;;;;;;5077595;28;20166;-69
2022/11/20 02:13:45;;;;;;;35.70;21.27;;;-1.30;99.90;;;;;;5079977;28;20193;-69
2022/11/20 02:16:27;;;;;;;33.90;23.03;;;-1.30;99.90;;;;;;5084508;28;20169;-69
2022/11/20 02:18:56;;;;;;;35.33;22.73;;;-1.20;99.90;;;;;;5076275;28;20221;-69
2022/11/20 02:21:40;;;;;;;35.23;22.70;;;-1.20;99.90;;;;;;5077525;28;20198;-69
2022/11/20 02:24:21;;;;;;;39.40;25.07;;;-1.20;99.90;;;;;;5075851;28;20173;-69
2022/11/20 02:26:54;;;;;;;35.43;22.70;;;-1.20;99.90;;;;;;5077604;28;20184;-69
2022/11/20 02:29:27;;;;;;;32.83;22.67;;;-1.20;99.90;;;;;;5075900;28;20312;-69
2022/11/20 02:31:56;;;;;;;37.40;23.27;;;-1.20;99.90;;;;;;5077037;28;20166;-69
2022/11/20 02:34:22;;;;;;;36.00;24.97;;;-1.20;99.90;;;;;;5076937;28;20283;-69
2022/11/20 02:36:49;;;;;;;39.33;24.77;;;-1.20;99.90;;;;;;5076989;28;20253;-69
2022/11/20 02:39:16;;;;;;;36.50;23.13;;;-1.20;99.90;;;;;;5076993;28;20193;-69
2022/11/20 02:41:42;;;;;;;36.70;24.30;;;-1.20;99.90;;;;;;5076786;28;20646;-69
2022/11/20 02:44:08;;;;;;;36.67;23.13;;;-1.30;99.90;;;;;;5076786;28;20188;-69
2022/11/20 02:46:34;;;;;;;33.70;23.97;;;-1.30;99.90;;;;;;5076708;28;20252;-69
2022/11/20 02:49:05;;;;;;;36.40;23.77;;;-1.30;99.90;;;;;;5076797;28;20264;-69
2022/11/20 02:51:32;;;;;;;32.53;22.20;;;-1.20;99.90;;;;;;5075548;28;20591;-69
2022/11/20 02:53:57;;;;;;;33.07;22.63;;;-1.20;99.90;;;;;;5074145;28;20724;-69
2022/11/20 02:56:24;;;;;;;40.87;24.93;;;-1.20;99.90;;;;;;5076809;28;20170;-69
2022/11/20 02:58:50;;;;;;;32.60;22.57;;;-1.20;99.90;;;;;;5076964;28;20546;-69
2022/11/20 03:01:15;;;;;;;35.17;23.60;;;-1.10;99.90;;;;;;5076342;28;20174;-69
2022/11/20 03:03:41;;;;;;;31.53;23.13;;;-1.00;99.90;;;;;;5076474;28;20178;-69
2022/11/20 03:06:07;;;;;;;32.47;22.27;;;-1.00;99.90;;;;;;5076480;28;20174;-69
2022/11/20 03:08:33;;;;;;;34.17;23.37;;;-1.00;99.90;;;;;;5076522;28;20284;-69
2022/11/20 03:11:07;;;;;;;33.63;23.07;;;-1.00;99.90;;;;;;5076245;28;20176;-69
2022/11/20 03:13:33;;;;;;;31.13;22.43;;;-0.90;99.90;;;;;;5074668;28;20225;-70
2022/11/20 03:16:12;;;;;;;42.27;24.53;;;-0.90;99.90;;;;;;5078087;28;20646;-69
2022/11/20 03:18:39;;;;;;;34.27;22.93;;;-0.90;99.90;;;;;;5077169;28;20194;-69
2022/11/20 03:21:05;;;;;;;37.70;21.90;;;-0.90;99.90;;;;;;5077451;28;20180;-69
2022/11/20 03:23:32;;;;;;;35.20;22.87;;;-0.90;99.90;;;;;;5076459;28;20169;-69
2022/11/20 03:26:15;;;;;;;31.00;21.23;;;-0.90;99.90;;;;;;5074814;28;20264;-69
2022/11/20 03:28:42;;;;;;;34.37;22.27;;;-0.80;99.90;;;;;;5075785;28;20190;-69
2022/11/20 03:31:10;;;;;;;31.67;22.27;;;-0.80;99.90;;;;;;5075853;28;20260;-69
2022/11/20 03:33:36;;;;;;;31.33;20.37;;;-0.90;99.90;;;;;;5075603;28;20208;-70
2022/11/20 03:36:07;;;;;;;34.57;23.33;;;-0.90;99.90;;;;;;5075972;28;20166;-69
2022/11/20 03:38:34;;;;;;;30.37;20.83;;;-0.90;99.90;;;;;;5074422;28;20213;-69
2022/11/20 03:41:06;;;;;;;32.40;21.33;;;-0.80;99.90;;;;;;5075631;28;20209;-70
2022/11/20 03:43:32;;;;;;;34.83;22.00;;;-0.80;99.90;;;;;;5075739;28;20657;-69
2022/11/20 03:45:59;;;;;;;35.40;23.07;;;-0.80;99.90;;;;;;5075491;28;20661;-69
2022/11/20 03:48:25;;;;;;;31.13;20.97;;;-0.80;99.90;;;;;;5074355;28;20243;-69
2022/11/20 03:50:52;;;;;;;34.70;22.17;;;-0.70;99.90;;;;;;5074227;28;20180;-69
2022/11/20 03:53:18;;;;;;;28.43;21.33;;;-0.70;99.90;;;;;;5073950;28;20177;-69
2022/11/20 03:55:44;;;;;;;29.90;20.83;;;-0.70;99.90;;;;;;5074264;28;20654;-69
2022/11/20 03:58:10;;;;;;;35.67;22.63;;;-0.70;99.90;;;;;;5075421;28;20225;-69
2022/11/20 04:00:36;;;;;;;30.53;21.17;;;-0.70;99.90;;;;;;5075115;28;20184;-69
2022/11/20 04:03:02;;;;;;;29.90;20.73;;;-0.70;99.90;;;;;;5075469;28;20162;-69
2022/11/20 04:05:28;;;;;;;30.13;20.87;;;-0.70;99.90;;;;;;5075383;28;20177;-69
2022/11/20 04:07:54;;;;;;;34.77;21.20;;;-0.70;99.90;;;;;;5075106;28;20584;-70
2022/11/20 04:10:20;;;;;;;30.63;20.70;;;-0.70;99.90;;;;;;5075229;28;20653;-69
2022/11/20 04:12:45;;;;;;;28.33;20.47;;;-0.70;99.90;;;;;;5074957;28;20208;-69
2022/11/20 04:15:11;;;;;;;29.00;21.17;;;-0.70;99.90;;;;;;5075084;28;20566;-69
2022/11/20 04:17:37;;;;;;;33.50;20.13;;;-0.70;99.90;;;;;;5073681;28;20180;-69
2022/11/20 04:20:03;;;;;;;32.27;20.40;;;-0.60;99.90;;;;;;5074969;28;20174;-69
2022/11/20 04:22:29;;;;;;;30.70;19.93;;;-0.60;99.90;;;;;;5073504;28;20174;-69
2022/11/20 04:24:54;;;;;;;26.43;20.13;;;-0.50;99.90;;;;;;5074810;28;20176;-69
2022/11/20 04:27:20;;;;;;;27.97;21.23;;;-0.50;99.90;;;;;;5073511;28;20173;-69
2022/11/20 04:29:46;;;;;;;32.67;21.90;;;-0.40;99.90;;;;;;5074738;28;20194;-69
2022/11/20 04:32:12;;;;;;;31.10;21.77;;;-0.40;99.90;;;;;;5073249;28;20188;-69
2022/11/20 04:34:37;;;;;;;35.33;21.80;;;-0.40;99.90;;;;;;5074800;28;20198;-69
2022/11/20 04:37:03;;;;;;;26.70;20.43;;;-0.30;99.90;;;;;;5074780;28;20235;-69
2022/11/20 04:39:29;;;;;;;29.70;21.33;;;-0.30;99.90;;;;;;5074414;28;20193;-70
2022/11/20 04:44:39;;;;;;;29.63;19.33;;;-0.30;99.90;;;;;;5074674;28;20215;-69
2022/11/20 04:47:05;;;;;;;31.33;21.33;;;-0.30;99.90;;;;;;5073904;28;20177;-69
2022/11/20 04:49:31;;;;;;;30.73;21.93;;;-0.30;99.90;;;;;;5072947;28;20210;-69
2022/11/20 04:51:57;;;;;;;31.30;20.60;;;-0.30;99.90;;;;;;5074374;28;20166;-69
2022/11/20 04:54:23;;;;;;;27.07;21.30;;;-0.30;99.90;;;;;;5074158;28;20239;-69
2022/11/20 04:56:50;;;;;;;31.00;21.70;;;-0.30;99.90;;;;;;5074158;28;20249;-69
2022/11/20 04:59:16;;;;;;;30.73;21.27;;;-0.20;99.90;;;;;;5074248;28;20555;-69
2022/11/20 05:01:42;;;;;;;26.90;20.33;;;-0.20;99.90;;;;;;5073814;28;20196;-69
2022/11/20 05:04:07;;;;;;;30.00;21.27;;;-0.20;99.90;;;;;;5074215;28;20174;-69
2022/11/20 05:06:33;;;;;;;30.33;20.77;;;-0.20;99.90;;;;;;5074056;28;20180;-69
2022/11/20 05:09:00;;;;;;;29.97;20.50;;;-0.20;99.90;;;;;;5073955;28;20296;-69
2022/11/20 05:11:28;;;;;;;30.27;20.83;;;-0.20;99.90;;;;;;5073855;28;20170;-69
2022/11/20 05:13:54;;;;;;;28.13;20.03;;;-0.20;99.90;;;;;;5074334;28;20189;-69
2022/11/20 05:16:22;;;;;;;33.50;22.27;;;-0.20;99.90;;;;;;5073720;28;20174;-69
2022/11/20 05:18:49;;;;;;;28.40;20.33;;;-0.20;99.90;;;;;;5074254;28;20198;-69
2022/11/20 05:21:15;;;;;;;28.67;20.37;;;-0.20;99.90;;;;;;5074013;28;20170;-69
2022/11/20 05:23:42;;;;;;;29.60;20.93;;;-0.20;99.90;;;;;;5079120;28;20189;-69
2022/11/20 05:26:12;;;;;;;28.37;19.97;;;-0.20;99.90;;;;;;5079595;28;20595;-68
2022/11/20 05:28:38;;;;;;;31.50;20.27;;;-0.10;99.90;;;;;;5073901;28;20665;-69
2022/11/20 05:31:08;;;;;;;30.70;19.60;;;-0.10;99.90;;;;;;5073950;28;20177;-69
2022/11/20 05:33:35;;;;;;;29.87;20.73;;;-0.10;99.90;;;;;;5073893;28;20174;-69
2022/11/20 05:36:04;;;;;;;31.17;19.97;;;-0.20;99.90;;;;;;5073855;28;20169;-69
2022/11/20 05:38:30;;;;;;;32.13;21.40;;;-0.20;99.90;;;;;;5072559;28;20197;-69
2022/11/20 05:41:03;;;;;;;28.77;20.00;;;-0.10;99.90;;;;;;5074045;28;20170;-68
2022/11/20 05:43:32;;;;;;;27.07;19.27;;;-0.10;99.90;;;;;;5073984;28;20182;-69
2022/11/20 05:45:58;;;;;;;29.43;20.17;;;-0.10;99.90;;;;;;5073969;28;20173;-68
2022/11/20 05:48:23;;;;;;;28.10;19.73;;;-0.20;99.90;;;;;;5073492;28;20197;-69
2022/11/20 05:50:49;;;;;;;32.87;21.40;;;-0.20;99.90;;;;;;5073860;28;20166;-69
2022/11/20 05:53:15;;;;;;;26.90;19.93;;;-0.20;99.90;;;;;;5073671;28;20199;-69
2022/11/20 05:55:41;;;;;;;25.57;19.93;;;-0.20;99.90;;;;;;5073503;28;20306;-69
2022/11/20 05:58:06;;;;;;;28.17;20.57;;;-0.20;99.90;;;;;;5072581;28;20197;-69
2022/11/20 06:00:32;;;;;;;26.60;19.93;;;-0.20;99.90;;;;;;5073484;28;20170;-69
2022/11/20 06:02:58;;;;;;;28.00;19.00;;;-0.20;99.90;;;;;;5073971;28;20253;-69
2022/11/20 06:05:23;;;;;;;30.20;19.37;;;-0.20;99.90;;;;;;5072346;28;20696;-69
2022/11/20 06:07:49;;;;;;;27.60;18.50;;;-0.30;99.90;;;;;;5073854;28;20634;-69
2022/11/20 06:10:15;;;;;;;23.97;18.63;;;-0.30;99.90;;;;;;5073611;28;20197;-68
2022/11/20 06:12:40;;;;;;;25.37;18.90;;;-0.30;99.90;;;;;;5073470;28;20197;-69
2022/11/20 06:15:07;;;;;;;29.13;19.63;;;-0.40;99.90;;;;;;5073491;28;20197;-69
2022/11/20 06:17:32;;;;;;;27.70;19.97;;;-0.40;99.90;;;;;;5073131;28;20247;-69
2022/11/20 06:19:58;;;;;;;24.30;18.77;;;-0.50;99.90;;;;;;5072196;28;20653;-68
2022/11/20 06:22:24;;;;;;;28.50;18.67;;;-0.50;99.90;;;;;;5073392;28;20178;-69
2022/11/20 06:24:49;;;;;;;32.27;20.33;;;-0.50;99.90;;;;;;5073298;28;20650;-69
2022/11/20 06:27:16;;;;;;;31.50;20.47;;;-0.50;99.90;;;;;;5073360;28;20180;-69
2022/11/20 06:29:41;;;;;;;26.70;18.90;;;-0.60;99.90;;;;;;5075987;28;20202;-69
2022/11/20 06:32:07;;;;;;;31.57;19.53;;;-0.60;99.90;;;;;;5076750;28;20178;-69
2022/11/20 06:34:33;;;;;;;28.00;20.03;;;-0.60;99.90;;;;;;5076704;28;20237;-69
2022/11/20 06:36:59;;;;;;;30.17;19.90;;;-0.60;99.90;;;;;;5077058;28;20180;-69
2022/11/20 06:39:24;;;;;;;28.43;19.33;;;-0.60;99.90;;;;;;5076612;28;20194;-68
2022/11/20 06:41:50;;;;;;;29.10;20.53;;;-0.70;99.90;;;;;;5076457;28;20722;-68
2022/11/20 06:44:16;;;;;;;29.40;19.57;;;-0.70;99.90;;;;;;5076464;28;20174;-69
2022/11/20 06:46:41;;;;;;;34.17;20.50;;;-0.70;99.90;;;;;;5076362;28;20193;-68
2022/11/20 06:49:07;;;;;;;26.43;18.47;;;-0.70;99.90;;;;;;5076292;28;20194;-68
2022/11/20 06:51:33;;;;;;;31.27;20.10;;;-0.70;99.90;;;;;;5074851;28;20304;-68
2022/11/20 06:54:00;;;;;;;28.13;19.43;;;-0.80;99.90;;;;;;5076321;28;20193;-68
2022/11/20 06:56:26;;;;;;;28.57;18.80;;;-0.80;99.90;;;;;;5074889;28;20243;-68
2022/11/20 06:58:52;;;;;;;28.90;20.57;;;-0.80;99.90;;;;;;5076209;28;20228;-68
2022/11/20 07:01:18;;;;;;;32.10;17.80;;;-0.80;99.90;;;;;;5076091;28;20170;-68
2022/11/20 07:03:44;;;;;;;27.37;20.20;;;-0.90;99.90;;;;;;5076138;28;20243;-68
2022/11/20 07:06:10;;;;;;;26.67;18.57;;;-0.90;99.90;;;;;;5076121;28;20201;-68
2022/11/20 07:08:36;;;;;;;26.43;19.27;;;-0.80;99.90;;;;;;5076056;28;20202;-69
2022/11/20 07:11:06;;;;;;;29.43;19.80;;;-0.90;99.90;;;;;;5076254;28;20510;-68
2022/11/20 07:13:32;;;;;;;25.37;18.80;;;-0.90;99.90;;;;;;5075190;28;20186;-68
2022/11/20 07:16:03;;;;;;;27.37;19.03;;;-0.90;99.90;;;;;;5075977;28;20242;-68
2022/11/20 07:18:29;;;;;;;24.60;18.80;;;-0.90;99.90;;;;;;5074464;28;20194;-68
2022/11/20 07:20:55;;;;;;;27.57;18.67;;;-0.90;99.90;;;;;;5076614;28;20170;-69
2022/11/20 07:23:21;;;;;;;27.83;19.37;;;-0.90;99.90;;;;;;5074881;28;20255;-65
2022/11/20 07:25:47;;;;;;;27.50;18.60;;;-0.90;99.90;;;;;;5074345;28;20593;-65
2022/11/20 07:28:13;;;;;;;28.93;19.70;;;-0.90;99.90;;;;;;5075813;28;20194;-65
2022/11/20 07:30:39;;;;;;;23.20;17.67;;;-0.90;99.90;;;;;;5075431;28;20180;-65
2022/11/20 07:33:05;;;;;;;27.50;19.50;;;-0.90;99.90;;;;;;5075633;28;20593;-65
2022/11/20 07:35:30;;;;;;;26.17;18.77;;;-0.90;99.90;;;;;;5075687;28;20255;-65
2022/11/20 07:37:56;;;;;;;25.30;18.20;;;-0.90;99.90;;;;;;5075496;28;20267;-66
2022/11/20 07:40:22;;;;;;;25.13;18.27;;;-0.90;99.90;;;;;;5074564;28;20189;-65
2022/11/20 07:42:52;;;;;;;24.53;17.80;;;-0.90;99.90;;;;;;5073856;28;20196;-65
2022/11/20 07:45:19;;;;;;;23.93;18.37;;;-0.90;99.90;;;;;;5075752;28;20585;-65
2022/11/20 07:47:45;;;;;;;28.97;17.67;;;-0.90;99.90;;;;;;5073688;28;20643;-65
2022/11/20 07:50:11;;;;;;;25.50;18.80;;;-0.80;99.90;;;;;;5075033;28;20193;-65
2022/11/20 07:52:37;;;;;;;25.37;18.20;;;-0.80;99.90;;;;;;5075284;28;20201;-65
2022/11/20 07:55:03;;;;;;;26.07;18.40;;;-0.80;99.90;;;;;;5073580;28;20813;-65
2022/11/20 07:57:30;;;;;;;25.57;18.00;;;-0.70;99.90;;;;;;5074881;28;20181;-65
2022/11/20 07:59:55;;;;;;;25.70;18.70;;;-0.70;99.90;;;;;;5075073;28;20182;-65
2022/11/20 08:02:22;;;;;;;26.47;19.23;;;-0.60;99.90;;;;;;5073644;28;20185;-65
2022/11/20 08:04:48;;;;;;;27.37;18.80;;;-0.60;99.90;;;;;;5074938;28;20170;-65
2022/11/20 08:07:13;;;;;;;26.30;18.53;;;-0.60;99.90;;;;;;5074929;28;20184;-65
2022/11/20 08:09:39;;;;;;;27.20;20.07;;;-0.50;99.90;;;;;;5074867;28;20206;-65
2022/11/20 08:14:49;;;;;;;28.70;20.03;;;-0.50;99.90;;;;;;5074657;28;20558;-65
2022/11/20 08:17:15;;;;;;;33.03;22.27;;;-0.40;99.90;;;;;;5073031;28;20170;-66
2022/11/20 08:19:41;;;;;;;71.30;40.40;;;-0.40;99.90;;;;;;5074407;28;20189;-65
2022/11/20 08:22:06;;;;;;;47.13;30.53;;;-0.40;99.90;;;;;;5073068;28;20177;-65
2022/11/20 08:24:32;;;;;;;43.63;26.83;;;-0.40;99.90;;;;;;5074251;28;20216;-74
2022/11/20 08:26:59;;;;;;;33.87;22.83;;;-0.40;99.90;;;;;;5074230;28;20174;-65
2022/11/20 08:29:27;;;;;;;29.37;21.73;;;-0.30;99.90;;;;;;5073202;28;20288;-65
2022/11/20 08:31:53;;;;;;;30.70;21.17;;;-0.30;99.90;;;;;;5074115;28;20301;-65
2022/11/20 08:34:19;;;;;;;28.77;20.60;;;-0.20;99.90;;;;;;5074393;28;20565;-65
2022/11/20 08:36:45;;;;;;;32.73;21.70;;;-0.20;99.90;;;;;;5074104;28;20176;-65
2022/11/20 08:39:12;;;;;;;26.07;20.27;;;-0.20;99.90;;;;;;5074094;28;20198;-65
2022/11/20 08:41:38;;;;;;;28.00;19.50;;;-0.30;99.90;;;;;;5074011;28;20170;-65
2022/11/20 08:44:06;;;;;;;31.07;18.93;;;-0.20;99.90;;;;;;5074327;28;20182;-65
2022/11/20 08:46:36;;;;;;;26.10;19.67;;;-0.20;99.90;;;;;;5072608;28;20264;-65
2022/11/20 08:49:03;;;;;;;28.07;19.87;;;-0.20;99.90;;;;;;5074096;28;20654;-65
2022/11/20 08:51:30;;;;;;;32.00;20.90;;;-0.10;99.90;;;;;;5073313;28;20671;-65
2022/11/20 08:53:55;;;;;;;30.10;20.03;;;0.00;99.90;;;;;;5073741;28;20224;-65
2022/11/20 08:56:22;;;;;;;25.27;18.93;;;0.00;99.90;;;;;;5072604;28;20170;-65
2022/11/20 08:58:49;;;;;;;27.50;20.73;;;0.00;99.90;;;;;;5075032;28;20720;-65
2022/11/20 09:01:15;;;;;;;29.27;20.73;;;0.10;99.90;;;;;;5077567;28;20234;-73
2022/11/20 09:03:41;;;;;;;31.67;21.47;;;0.10;99.90;;;;;;5074743;28;20592;-67
2022/11/20 09:06:07;;;;;;;28.40;21.47;;;0.20;99.90;;;;;;5073641;28;20195;-66
2022/11/20 09:08:34;;;;;;;31.10;22.67;;;0.20;99.90;;;;;;5073725;28;20569;-65
2022/11/20 09:11:00;;;;;;;30.40;22.07;;;0.30;99.90;;;;;;5073956;28;20169;-65
2022/11/20 09:13:27;;;;;;;29.10;20.53;;;0.30;99.90;;;;;;5072105;28;20189;-65
2022/11/20 09:15:54;;;;;;;34.63;23.00;;;0.40;99.90;;;;;;5073813;28;20240;-66
2022/11/20 09:18:21;;;;;;;29.83;20.83;;;0.50;99.90;;;;;;5072146;28;20217;-65
2022/11/20 09:20:47;;;;;;;28.73;19.27;;;0.60;99.90;;;;;;5073507;28;20150;-66
2022/11/20 09:23:13;;;;;;;30.70;21.27;;;0.70;99.90;;;;;;5073393;28;20215;-66
2022/11/20 09:25:39;;;;;;;26.77;20.17;;;0.70;99.90;;;;;;5074102;28;20174;-65
2022/11/20 09:28:04;;;;;;;26.87;19.80;;;0.70;99.90;;;;;;5072125;28;20213;-65
2022/11/20 09:30:30;;;;;;;26.47;19.33;;;0.80;99.90;;;;;;5073361;28;20181;-65
2022/11/20 09:32:56;;;;;;;27.97;20.17;;;0.80;99.90;;;;;;5073223;28;20158;-66
2022/11/20 09:35:23;;;;;;;33.63;22.57;;;0.90;99.90;;;;;;5071928;28;20208;-66
2022/11/20 09:37:49;;;;;;;31.43;20.90;;;1.00;99.90;;;;;;5073727;28;20194;-66
2022/11/20 09:40:27;;;;;;;31.87;22.63;;;1.20;99.90;;;;;;5073294;28;20185;-66
2022/11/20 09:43:22;;;;;;;28.50;20.93;;;1.40;99.90;;;;;;5071933;28;20229;-65
2022/11/20 09:45:47;;;;;;;29.67;22.23;;;1.50;99.90;;;;;;5072706;28;20189;-66
2022/11/20 09:48:41;;;;;;;29.27;23.00;;;1.60;99.90;;;;;;5071775;28;20197;-66
2022/11/20 09:51:18;;;;;;;29.13;22.07;;;1.70;99.90;;;;;;5073161;28;20165;-65
2022/11/20 09:54:05;;;;;;;30.57;21.10;;;1.90;99.90;;;;;;5073130;28;20161;-65
2022/11/20 09:56:33;;;;;;;29.13;20.67;;;2.00;99.90;;;;;;5073138;28;20146;-66
2022/11/20 09:59:04;;;;;;;29.53;20.93;;;2.10;99.90;;;;;;5072206;28;20276;-65
2022/11/20 10:01:33;;;;;;;26.13;20.60;;;2.30;99.90;;;;;;5073010;28;20241;-66
2022/11/20 10:04:13;;;;;;;28.50;20.07;;;2.40;99.90;;;;;;5076377;28;20570;-66
2022/11/20 10:07:00;;;;;;;27.20;19.40;;;2.50;99.90;;;;;;5077357;28;20241;-65
2022/11/20 10:09:30;;;;;;;29.97;21.30;;;2.70;99.90;;;;;;5076926;28;20284;-66
2022/11/20 10:12:03;;;;;;;25.07;20.37;;;2.70;99.90;;;;;;5076679;28;20255;-66
2022/11/20 10:14:46;;;;;;;23.90;19.53;;;2.80;99.90;;;;;;5075538;28;20198;-65
2022/11/20 10:17:28;;;;;;;23.53;18.93;;;2.80;99.90;;;;;;5076619;28;20154;-66
2022/11/20 10:20:16;;;;;;;22.53;18.17;;;3.00;99.90;;;;;;5077411;28;20553;-66
2022/11/20 10:23:12;;;;;;;23.17;18.40;;;3.10;99.90;;;;;;5076641;28;20158;-66
2022/11/20 10:25:42;;;;;;;24.50;19.93;;;3.30;99.90;;;;;;5075283;28;20174;-66
2022/11/20 10:28:45;;;;;;;24.40;19.73;;;3.50;99.90;;;;;;5076476;28;20190;-66
2022/11/20 10:31:30;;;;;;;25.50;18.40;;;3.70;99.90;;;;;;5075999;28;20247;-66
2022/11/20 10:33:59;;;;;;;21.63;16.73;;;3.90;99.90;;;;;;5075134;28;20201;-66
2022/11/20 10:36:33;;;;;;;19.70;16.40;;;3.80;99.90;;;;;;5077039;28;20173;-65
2022/11/20 10:39:53;;;;;;;20.23;15.73;;;3.80;99.90;;;;;;5075278;28;20600;-65
2022/11/20 10:42:44;;;;;;;20.43;16.73;;;3.70;99.90;;;;;;5074656;28;20177;-67
2022/11/20 10:45:24;;;;;;;24.07;17.47;;;3.60;99.90;;;;;;5065565;28;20182;-64
2022/11/20 10:47:54;;;;;;;19.77;16.40;;;3.30;99.90;;;;;;5075889;28;20212;-65
2022/11/20 10:50:22;;;;;;;21.47;17.10;;;3.10;99.90;;;;;;5076084;28;20178;-65
2022/11/20 10:53:15;;;;;;;22.23;18.07;;;3.10;99.90;;;;;;5074766;28;20665;-65
2022/11/20 10:55:54;;;;;;;20.07;17.10;;;3.00;99.90;;;;;;5075913;28;20269;-65
2022/11/20 10:59:04;;;;;;;21.10;17.83;;;2.90;99.90;;;;;;5074724;28;20232;-65
2022/11/20 11:01:30;;;;;;;25.93;18.70;;;2.90;99.90;;;;;;5074658;28;20170;-65
2022/11/20 11:03:58;;;;;;;24.33;18.83;;;3.00;99.90;;;;;;5075986;28;20239;-65
2022/11/20 11:06:35;;;;;;;18.13;15.27;;;3.10;99.90;;;;;;5076155;28;20177;-65
2022/11/20 11:09:08;;;;;;;20.87;16.70;;;3.10;99.90;;;;;;5074512;28;20201;-65
2022/11/20 11:11:34;;;;;;;19.33;16.20;;;3.10;99.90;;;;;;5075609;28;20190;-65
2022/11/20 11:14:26;;;;;;;19.27;15.93;;;3.10;99.90;;;;;;5075289;28;20190;-65
2022/11/20 11:16:55;;;;;;;23.30;17.40;;;3.10;99.90;;;;;;5075268;28;20178;-65
2022/11/20 11:19:21;;;;;;;20.40;15.83;;;3.10;99.90;;;;;;5075978;28;20705;-65
2022/11/20 11:21:49;;;;;;;20.03;15.83;;;3.00;99.90;;;;;;5075853;28;20162;-65
2022/11/20 11:24:23;;;;;;;21.10;15.70;;;3.10;99.90;;;;;;5075762;28;20181;-65
2022/11/20 11:27:03;;;;;;;18.80;15.73;;;3.20;99.90;;;;;;5075746;28;20173;-65
2022/11/20 11:29:30;;;;;;;20.97;15.83;;;3.20;99.90;;;;;;5075758;28;20197;-65
2022/11/20 11:32:13;;;;;;;20.57;16.43;;;3.30;99.90;;;;;;5074119;28;20220;-65
2022/11/20 11:34:38;;;;;;;19.83;15.80;;;3.30;99.90;;;;;;5073916;28;20209;-65
2022/11/20 11:37:10;;;;;;;22.53;16.23;;;3.30;99.90;;;;;;5075601;28;20177;-65
2022/11/20 11:39:40;;;;;;;19.70;16.33;;;3.20;99.90;;;;;;5075211;28;20566;-65
2022/11/20 11:42:08;;;;;;;21.07;16.57;;;3.20;99.90;;;;;;5075792;28;20176;-65
2022/11/20 11:47:30;;;;;;;21.60;16.80;;;3.20;99.90;;;;;;5075228;28;20169;-65
2022/11/20 11:50:08;;;;;;;19.93;16.33;;;3.20;99.90;;;;;;5075282;28;20258;-65
2022/11/20 11:52:50;;;;;;;19.67;16.70;;;3.20;99.90;;;;;;5074905;28;20172;-65
2022/11/20 11:55:31;;;;;;;21.73;15.80;;;3.20;99.90;;;;;;5075166;28;20650;-65
2022/11/20 11:58:16;;;;;;;20.33;15.37;;;3.20;99.90;;;;;;5074855;28;20270;-65
2022/11/20 12:00:53;;;;;;;17.37;14.40;;;3.30;99.90;;;;;;5074906;28;20169;-65
2022/11/20 12:03:52;;;;;;;20.17;14.40;;;3.30;99.90;;;;;;5074689;28;20157;-65
2022/11/20 12:06:18;;;;;;;21.67;14.33;;;3.30;99.90;;;;;;5056256;28;20193;-66
2022/11/20 12:08:55;;;;;;;20.63;15.07;;;3.30;99.90;;;;;;5074739;28;20206;-65
2022/11/20 12:11:40;;;;;;;16.50;14.43;;;3.30;99.90;;;;;;5074647;28;20243;-66
2022/11/20 12:14:35;;;;;;;18.77;14.87;;;3.40;99.90;;;;;;5074701;28;20194;-65
2022/11/20 12:17:02;;;;;;;18.00;14.33;;;3.40;99.90;;;;;;5073206;28;20178;-65
2022/11/20 12:19:33;;;;;;;18.13;13.90;;;3.50;99.90;;;;;;5075278;28;20201;-65
2022/11/20 12:22:33;;;;;;;17.73;13.83;;;3.50;99.90;;;;;;5074635;28;20245;-66
2022/11/20 12:25:10;;;;;;;17.97;14.67;;;3.60;99.90;;;;;;5062372;28;20513;-66
2022/11/20 12:27:48;;;;;;;20.47;17.10;;;3.60;99.90;;;;;;5074279;28;20173;-67
2022/11/20 12:30:19;;;;;;;20.17;15.03;;;3.70;99.90;;;;;;5072989;28;20216;-69
2022/11/20 12:33:19;;;;;;;16.43;13.20;;;3.90;99.90;;;;;;5074078;28;20253;-69
2022/11/20 12:36:04;;;;;;;18.53;13.97;;;4.30;99.90;;;;;;5074433;28;20235;-70
2022/11/20 12:38:54;;;;;;;18.07;14.73;;;4.60;99.90;;;;;;5072752;28;20204;-70
2022/11/20 12:47:49;;;;;;;17.70;14.00;;;4.50;99.90;;;;;;5073851;28;20195;-69
2022/11/20 12:50:33;;;;;;;17.87;14.33;;;4.50;99.90;;;;;;5074167;28;20584;-69
2022/11/20 12:53:26;;;;;;;18.80;14.70;;;4.40;99.90;;;;;;5074184;28;20162;-68
2022/11/20 12:56:01;;;;;;;28.07;15.40;;;4.40;99.90;;;;;;5073693;28;20276;-68
2022/11/20 12:58:26;;;;;;;16.70;13.33;;;4.40;99.90;;;;;;5073701;28;20189;-68